sensor_id;sensor_type;location;lat;lon;timestamp;temperature;humidity
19654;DHT22;9975;48.046;7.804;2024-02-15T09:17:48;9.10;99.90
19654;DHT22;9975;48.046;7.804;2024-02-15T09:20:17;9.20;99.90
19654;DHT22;9975;48.046;7.804;2024-02-15T09:22:52;9.20;99.90
19654;DHT22;9975;48.046;7.804;2024-02-15T09:25:20;9.30;99.90
19654;DHT22;9975;48.046;7.804;2024-02-15T09:27:48;9.40;99.90
19654;DHT22;9975;48.046;7.804;2024-02-15T09:30:15;9.50;99.90
19654;DHT22;9975;48.046;7.804;2024-02-15T10:12:19;11.40;99.90
19654;DHT22;9975;48.046;7.804;2024-02-15T10:14:50;11.30;99.90
19654;DHT22;9975;48.046;7.804;2024-02-15T10:17:18;11.60;99.90
19654;DHT22;9975;48.046;7.804;2024-02-15T10:19:44;11.80;99.90
19654;DHT22;9975;48.046;7.804;2024-02-15T10:22:12;12.00;99.90
19654;DHT22;9975;48.046;7.804;2024-02-15T10:24:40;12.10;99.90
19654;DHT22;9975;48.046;7.804;2024-02-15T10:27:06;12.40;99.90
19654;DHT22;9975;48.046;7.804;2024-02-15T10:29:33;12.40;99.90
19654;DHT22;9975;48.046;7.804;2024-02-15T10:32:00;12.60;99.90
19654;DHT22;9975;48.046;7.804;2024-02-15T10:34:27;12.80;99.90
19654;DHT22;9975;48.046;7.804;2024-02-15T10:37:14;13.00;99.90
19654;DHT22;9975;48.046;7.804;2024-02-15T10:39:42;13.20;99.90
19654;DHT22;9975;48.046;7.804;2024-02-15T10:42:08;13.40;99.90
19654;DHT22;9975;48.046;7.804;2024-02-15T10:44:38;13.60;99.90
19654;DHT22;9975;48.046;7.804;2024-02-15T10:47:06;13.70;99.90
19654;DHT22;9975;48.046;7.804;2024-02-15T10:49:34;13.70;99.90
19654;DHT22;9975;48.046;7.804;2024-02-15T10:52:01;14.10;99.90
19654;DHT22;9975;48.046;7.804;2024-02-15T10:55:04;14.20;99.90
19654;DHT22;9975;48.046;7.804;2024-02-15T10:57:37;14.40;99.90
19654;DHT22;9975;48.046;7.804;2024-02-15T11:00:04;14.80;99.90
19654;DHT22;9975;48.046;7.804;2024-02-15T11:02:46;14.90;99.90
19654;DHT22;9975;48.046;7.804;2024-02-15T11:05:14;15.40;99.90
19654;DHT22;9975;48.046;7.804;2024-02-15T11:07:46;15.50;96.20
19654;DHT22;9975;48.046;7.804;2024-02-15T11:10:12;15.40;96.70
19654;DHT22;9975;48.046;7.804;2024-02-15T11:12:42;15.50;97.00
19654;DHT22;9975;48.046;7.804;2024-02-15T11:15:09;15.70;95.00
19654;DHT22;9975;48.046;7.804;2024-02-15T11:20:09;15.60;95.10
19654;DHT22;9975;48.046;7.804;2024-02-15T11:22:59;15.60;95.00
19654;DHT22;9975;48.046;7.804;2024-02-15T11:25:32;15.70;95.20
19654;DHT22;9975;48.046;7.804;2024-02-15T11:30:55;16.30;92.50
19654;DHT22;9975;48.046;7.804;2024-02-15T11:33:27;16.30;92.80
19654;DHT22;9975;48.046;7.804;2024-02-15T11:36:10;16.40;90.80
19654;DHT22;9975;48.046;7.804;2024-02-15T11:38:38;16.40;91.20
19654;DHT22;9975;48.046;7.804;2024-02-15T11:41:07;16.40;89.70
19654;DHT22;9975;48.046;7.804;2024-02-15T11:43:49;16.30;88.50
19654;DHT22;9975;48.046;7.804;2024-02-15T11:46:27;16.10;89.70
19654;DHT22;9975;48.046;7.804;2024-02-15T11:48:56;16.10;90.20
19654;DHT22;9975;48.046;7.804;2024-02-15T11:54:09;16.50;89.60
19654;DHT22;9975;48.046;7.804;2024-02-15T11:59:09;16.10;86.60
19654;DHT22;9975;48.046;7.804;2024-02-15T12:01:44;16.40;86.30
19654;DHT22;9975;48.046;7.804;2024-02-15T12:04:29;16.50;87.00
19654;DHT22;9975;48.046;7.804;2024-02-15T12:07:14;16.90;84.70
19654;DHT22;9975;48.046;7.804;2024-02-15T12:09:59;17.10;82.10
19654;DHT22;9975;48.046;7.804;2024-02-15T12:12:56;16.80;82.20
19654;DHT22;9975;48.046;7.804;2024-02-15T12:15:40;16.80;83.00
19654;DHT22;9975;48.046;7.804;2024-02-15T12:18:24;17.10;79.60
19654;DHT22;9975;48.046;7.804;2024-02-15T12:21:08;16.80;79.70
19654;DHT22;9975;48.046;7.804;2024-02-15T12:23:38;16.80;80.50
19654;DHT22;9975;48.046;7.804;2024-02-15T12:26:06;16.60;81.40
19654;DHT22;9975;48.046;7.804;2024-02-15T12:28:33;16.70;80.10
19654;DHT22;9975;48.046;7.804;2024-02-15T12:31:02;16.70;81.10
19654;DHT22;9975;48.046;7.804;2024-02-15T12:33:28;16.60;79.20
19654;DHT22;9975;48.046;7.804;2024-02-15T12:36:06;16.40;79.40
19654;DHT22;9975;48.046;7.804;2024-02-15T12:38:32;16.30;81.30
19654;DHT22;9975;48.046;7.804;2024-02-15T12:40:59;16.50;80.30
19654;DHT22;9975;48.046;7.804;2024-02-15T12:43:28;16.40;81.40
19654;DHT22;9975;48.046;7.804;2024-02-15T12:45:53;16.50;80.70
19654;DHT22;9975;48.046;7.804;2024-02-15T12:48:19;16.50;81.40
19654;DHT22;9975;48.046;7.804;2024-02-15T12:50:45;17.00;78.10
19654;DHT22;9975;48.046;7.804;2024-02-15T12:53:11;17.20;76.50
19654;DHT22;9975;48.046;7.804;2024-02-15T12:55:38;17.20;77.30
19654;DHT22;9975;48.046;7.804;2024-02-15T12:58:13;17.40;77.60
19654;DHT22;9975;48.046;7.804;2024-02-15T13:00:39;17.30;76.90
19654;DHT22;9975;48.046;7.804;2024-02-15T13:03:06;17.40;77.80
19654;DHT22;9975;48.046;7.804;2024-02-15T13:05:43;17.60;74.80
19654;DHT22;9975;48.046;7.804;2024-02-15T13:08:09;17.70;74.20
19654;DHT22;9975;48.046;7.804;2024-02-15T13:10:42;17.40;74.10
19654;DHT22;9975;48.046;7.804;2024-02-15T13:13:08;17.50;74.40
19654;DHT22;9975;48.046;7.804;2024-02-15T13:15:39;17.40;75.10
19654;DHT22;9975;48.046;7.804;2024-02-15T13:18:06;17.40;73.50
19654;DHT22;9975;48.046;7.804;2024-02-15T13:20:35;17.30;73.40
19654;DHT22;9975;48.046;7.804;2024-02-15T13:23:09;17.30;73.90
19654;DHT22;9975;48.046;7.804;2024-02-15T13:25:41;17.10;72.00
19654;DHT22;9975;48.046;7.804;2024-02-15T13:28:09;17.20;73.00
19654;DHT22;9975;48.046;7.804;2024-02-15T13:30:36;17.30;72.30
19654;DHT22;9975;48.046;7.804;2024-02-15T13:33:02;17.30;72.60
19654;DHT22;9975;48.046;7.804;2024-02-15T13:35:28;17.50;72.70
19654;DHT22;9975;48.046;7.804;2024-02-15T13:37:55;17.40;73.60
19654;DHT22;9975;48.046;7.804;2024-02-15T13:40:24;17.50;73.40
19654;DHT22;9975;48.046;7.804;2024-02-15T13:42:52;17.50;73.00
19654;DHT22;9975;48.046;7.804;2024-02-15T13:47:55;17.20;72.70
19654;DHT22;9975;48.046;7.804;2024-02-15T13:50:21;17.20;73.00
19654;DHT22;9975;48.046;7.804;2024-02-15T13:52:47;17.20;74.20
19654;DHT22;9975;48.046;7.804;2024-02-15T13:55:14;17.10;74.00
19654;DHT22;9975;48.046;7.804;2024-02-15T13:57:41;17.00;74.60
19654;DHT22;9975;48.046;7.804;2024-02-15T14:00:08;17.20;72.60
19654;DHT22;9975;48.046;7.804;2024-02-15T14:02:40;17.10;72.80
19654;DHT22;9975;48.046;7.804;2024-02-15T14:05:06;16.90;74.00
19654;DHT22;9975;48.046;7.804;2024-02-15T14:07:34;17.00;72.30
19654;DHT22;9975;48.046;7.804;2024-02-15T14:10:03;16.80;72.90
19654;DHT22;9975;48.046;7.804;2024-02-15T14:12:29;16.90;73.10
19654;DHT22;9975;48.046;7.804;2024-02-15T14:14:55;16.90;73.80
19654;DHT22;9975;48.046;7.804;2024-02-15T14:17:21;16.80;74.50
19654;DHT22;9975;48.046;7.804;2024-02-15T14:19:48;16.60;75.50
19654;DHT22;9975;48.046;7.804;2024-02-15T14:22:14;16.50;75.30
19654;DHT22;9975;48.046;7.804;2024-02-15T14:24:44;16.50;76.50
19654;DHT22;9975;48.046;7.804;2024-02-15T14:27:11;16.60;76.60
19654;DHT22;9975;48.046;7.804;2024-02-15T14:29:37;16.60;76.60
19654;DHT22;9975;48.046;7.804;2024-02-15T14:32:11;16.50;76.10
19654;DHT22;9975;48.046;7.804;2024-02-15T14:34:55;16.60;76.90
19654;DHT22;9975;48.046;7.804;2024-02-15T14:37:22;16.50;76.90
19654;DHT22;9975;48.046;7.804;2024-02-15T14:39:47;16.10;76.30
19654;DHT22;9975;48.046;7.804;2024-02-15T14:42:13;16.00;77.60
19654;DHT22;9975;48.046;7.804;2024-02-15T14:44:39;16.00;76.90
19654;DHT22;9975;48.046;7.804;2024-02-15T14:47:05;15.80;77.20
19654;DHT22;9975;48.046;7.804;2024-02-15T14:49:31;15.80;77.80
19654;DHT22;9975;48.046;7.804;2024-02-15T14:51:57;15.70;77.90
19654;DHT22;9975;48.046;7.804;2024-02-15T14:54:22;15.70;78.60
19654;DHT22;9975;48.046;7.804;2024-02-15T14:56:48;15.70;79.10
19654;DHT22;9975;48.046;7.804;2024-02-15T14:59:14;15.60;79.90
19654;DHT22;9975;48.046;7.804;2024-02-15T15:01:41;15.80;79.70
19654;DHT22;9975;48.046;7.804;2024-02-15T15:04:07;15.70;80.40
19654;DHT22;9975;48.046;7.804;2024-02-15T15:06:35;15.50;81.70
19654;DHT22;9975;48.046;7.804;2024-02-15T15:09:19;15.50;82.40
19654;DHT22;9975;48.046;7.804;2024-02-15T15:12:04;15.50;83.20
19654;DHT22;9975;48.046;7.804;2024-02-15T15:14:47;15.40;84.00
19654;DHT22;9975;48.046;7.804;2024-02-15T15:17:13;15.40;83.60
19654;DHT22;9975;48.046;7.804;2024-02-15T15:19:41;15.60;83.40
19654;DHT22;9975;48.046;7.804;2024-02-15T15:22:07;15.60;84.20
19654;DHT22;9975;48.046;7.804;2024-02-15T15:24:32;15.50;85.00
19654;DHT22;9975;48.046;7.804;2024-02-15T15:27:18;15.50;84.20
19654;DHT22;9975;48.046;7.804;2024-02-15T15:29:44;15.60;85.00
19654;DHT22;9975;48.046;7.804;2024-02-15T15:32:10;15.40;85.60
19654;DHT22;9975;48.046;7.804;2024-02-15T15:34:35;15.50;86.00
19654;DHT22;9975;48.046;7.804;2024-02-15T15:37:02;15.50;85.70
19654;DHT22;9975;48.046;7.804;2024-02-15T15:39:27;15.40;85.40
19654;DHT22;9975;48.046;7.804;2024-02-15T15:41:56;15.50;85.00
19654;DHT22;9975;48.046;7.804;2024-02-15T15:46:48;15.50;85.10
19654;DHT22;9975;48.046;7.804;2024-02-15T15:49:14;15.40;84.60
19654;DHT22;9975;48.046;7.804;2024-02-15T15:51:42;15.30;85.60
19654;DHT22;9975;48.046;7.804;2024-02-15T15:54:08;15.20;85.30
19654;DHT22;9975;48.046;7.804;2024-02-15T15:56:34;15.20;86.00
19654;DHT22;9975;48.046;7.804;2024-02-15T15:58:59;15.10;86.40
19654;DHT22;9975;48.046;7.804;2024-02-15T16:01:25;15.20;86.70
19654;DHT22;9975;48.046;7.804;2024-02-15T16:03:51;15.10;86.50
19654;DHT22;9975;48.046;7.804;2024-02-15T16:06:17;15.20;86.40
19654;DHT22;9975;48.046;7.804;2024-02-15T16:08:43;15.20;87.30
19654;DHT22;9975;48.046;7.804;2024-02-15T16:11:11;15.10;88.70
19654;DHT22;9975;48.046;7.804;2024-02-15T16:13:39;15.10;88.50
19654;DHT22;9975;48.046;7.804;2024-02-15T16:16:08;15.20;89.40
19654;DHT22;9975;48.046;7.804;2024-02-15T16:18:33;15.00;90.60
19654;DHT22;9975;48.046;7.804;2024-02-15T16:23:25;14.90;90.80
19654;DHT22;9975;48.046;7.804;2024-02-15T16:25:51;14.80;91.00
19654;DHT22;9975;48.046;7.804;2024-02-15T16:28:17;14.70;91.50
19654;DHT22;9975;48.046;7.804;2024-02-15T16:30:42;14.60;91.90
19654;DHT22;9975;48.046;7.804;2024-02-15T16:33:09;14.70;92.00
19654;DHT22;9975;48.046;7.804;2024-02-15T16:35:35;14.60;92.70
19654;DHT22;9975;48.046;7.804;2024-02-15T16:38:03;14.40;93.60
19654;DHT22;9975;48.046;7.804;2024-02-15T16:40:30;14.30;93.60
19654;DHT22;9975;48.046;7.804;2024-02-15T16:42:56;14.30;93.70
19654;DHT22;9975;48.046;7.804;2024-02-15T16:45:23;14.40;94.10
19654;DHT22;9975;48.046;7.804;2024-02-15T16:47:51;14.40;94.70
19654;DHT22;9975;48.046;7.804;2024-02-15T16:50:25;14.50;93.70
19654;DHT22;9975;48.046;7.804;2024-02-15T18:43:03;12.10;99.90
19654;DHT22;9975;48.046;7.804;2024-02-15T18:45:29;12.00;99.90
19654;DHT22;9975;48.046;7.804;2024-02-15T18:47:55;12.00;99.90
19654;DHT22;9975;48.046;7.804;2024-02-15T18:50:22;12.00;99.90
19654;DHT22;9975;48.046;7.804;2024-02-15T18:52:49;11.90;99.90
19654;DHT22;9975;48.046;7.804;2024-02-15T18:55:15;11.80;99.90
19654;DHT22;9975;48.046;7.804;2024-02-15T18:57:41;11.70;99.90
19654;DHT22;9975;48.046;7.804;2024-02-15T19:00:10;11.70;99.90
19654;DHT22;9975;48.046;7.804;2024-02-15T19:02:37;11.80;99.90
19654;DHT22;9975;48.046;7.804;2024-02-15T19:05:05;11.80;99.90
19654;DHT22;9975;48.046;7.804;2024-02-15T19:07:43;11.70;99.90
19654;DHT22;9975;48.046;7.804;2024-02-15T19:10:11;11.70;99.90
19654;DHT22;9975;48.046;7.804;2024-02-15T19:12:38;11.60;99.90
19654;DHT22;9975;48.046;7.804;2024-02-15T19:15:04;11.50;99.90
19654;DHT22;9975;48.046;7.804;2024-02-15T19:17:33;11.50;99.90
19654;DHT22;9975;48.046;7.804;2024-02-15T19:20:00;11.50;99.90
19654;DHT22;9975;48.046;7.804;2024-02-15T19:22:26;11.40;99.90
19654;DHT22;9975;48.046;7.804;2024-02-15T19:24:54;11.30;99.90
19654;DHT22;9975;48.046;7.804;2024-02-15T19:27:20;11.30;99.90
19654;DHT22;9975;48.046;7.804;2024-02-15T19:29:46;11.30;99.90
19654;DHT22;9975;48.046;7.804;2024-02-15T19:32:12;11.30;99.90
19654;DHT22;9975;48.046;7.804;2024-02-15T19:37:05;11.30;99.90
19654;DHT22;9975;48.046;7.804;2024-02-15T19:39:33;11.20;99.90
19654;DHT22;9975;48.046;7.804;2024-02-15T19:41:59;11.20;99.90
19654;DHT22;9975;48.046;7.804;2024-02-15T19:44:24;11.20;99.90
19654;DHT22;9975;48.046;7.804;2024-02-15T19:46:50;11.20;99.90
19654;DHT22;9975;48.046;7.804;2024-02-15T19:49:15;11.10;99.90
19654;DHT22;9975;48.046;7.804;2024-02-15T19:51:41;11.10;99.90
19654;DHT22;9975;48.046;7.804;2024-02-15T19:56:33;10.90;99.90
19654;DHT22;9975;48.046;7.804;2024-02-15T19:59:00;10.90;99.90
19654;DHT22;9975;48.046;7.804;2024-02-15T20:01:26;10.80;99.90
19654;DHT22;9975;48.046;7.804;2024-02-15T20:03:52;10.70;99.90
19654;DHT22;9975;48.046;7.804;2024-02-15T20:06:19;10.70;99.90
19654;DHT22;9975;48.046;7.804;2024-02-15T20:08:49;10.60;99.90
19654;DHT22;9975;48.046;7.804;2024-02-15T20:11:14;10.50;99.90
19654;DHT22;9975;48.046;7.804;2024-02-15T20:13:40;10.50;99.90
19654;DHT22;9975;48.046;7.804;2024-02-15T20:16:06;10.30;99.90
19654;DHT22;9975;48.046;7.804;2024-02-15T20:18:35;10.40;99.90
19654;DHT22;9975;48.046;7.804;2024-02-15T20:21:01;10.40;99.90
19654;DHT22;9975;48.046;7.804;2024-02-15T20:23:29;10.30;99.90
19654;DHT22;9975;48.046;7.804;2024-02-15T20:28:20;10.20;99.90
19654;DHT22;9975;48.046;7.804;2024-02-15T20:30:47;10.10;99.90
19654;DHT22;9975;48.046;7.804;2024-02-15T20:33:13;10.10;99.90
19654;DHT22;9975;48.046;7.804;2024-02-15T20:35:43;10.10;99.90
19654;DHT22;9975;48.046;7.804;2024-02-15T20:38:10;10.10;99.90
19654;DHT22;9975;48.046;7.804;2024-02-15T20:40:38;10.10;99.90
19654;DHT22;9975;48.046;7.804;2024-02-15T20:43:04;10.10;99.90
19654;DHT22;9975;48.046;7.804;2024-02-15T20:47:56;10.00;99.90
19654;DHT22;9975;48.046;7.804;2024-02-15T20:52:47;10.00;99.90
19654;DHT22;9975;48.046;7.804;2024-02-15T20:55:13;9.90;99.90
19654;DHT22;9975;48.046;7.804;2024-02-15T20:57:39;9.90;99.90
19654;DHT22;9975;48.046;7.804;2024-02-15T21:00:06;9.90;99.90
19654;DHT22;9975;48.046;7.804;2024-02-15T21:02:42;9.80;99.90
19654;DHT22;9975;48.046;7.804;2024-02-15T21:05:09;9.80;99.90
19654;DHT22;9975;48.046;7.804;2024-02-15T21:07:37;9.80;99.90
19654;DHT22;9975;48.046;7.804;2024-02-15T21:10:05;9.80;99.90
19654;DHT22;9975;48.046;7.804;2024-02-15T21:12:31;9.90;99.90
19654;DHT22;9975;48.046;7.804;2024-02-15T21:14:57;9.60;99.90
19654;DHT22;9975;48.046;7.804;2024-02-15T21:19:49;9.70;99.90
19654;DHT22;9975;48.046;7.804;2024-02-15T21:22:16;9.70;99.90
19654;DHT22;9975;48.046;7.804;2024-02-15T21:24:42;9.80;99.90
19654;DHT22;9975;48.046;7.804;2024-02-15T21:27:07;9.70;99.90
19654;DHT22;9975;48.046;7.804;2024-02-15T21:29:33;9.70;99.90
19654;DHT22;9975;48.046;7.804;2024-02-15T21:32:01;9.70;99.90
19654;DHT22;9975;48.046;7.804;2024-02-15T21:34:28;9.70;99.90
19654;DHT22;9975;48.046;7.804;2024-02-15T21:36:54;9.60;99.90
19654;DHT22;9975;48.046;7.804;2024-02-15T21:39:20;9.60;99.90
19654;DHT22;9975;48.046;7.804;2024-02-15T21:41:50;9.50;99.90
19654;DHT22;9975;48.046;7.804;2024-02-15T21:44:16;9.60;99.90
19654;DHT22;9975;48.046;7.804;2024-02-15T21:49:08;9.50;99.90
19654;DHT22;9975;48.046;7.804;2024-02-15T21:51:33;9.50;99.90
19654;DHT22;9975;48.046;7.804;2024-02-15T21:56:25;9.40;99.90
19654;DHT22;9975;48.046;7.804;2024-02-15T21:58:50;9.40;99.90
19654;DHT22;9975;48.046;7.804;2024-02-15T22:01:16;9.40;99.90
19654;DHT22;9975;48.046;7.804;2024-02-15T22:03:42;9.40;99.90
19654;DHT22;9975;48.046;7.804;2024-02-15T22:06:08;9.50;99.90
19654;DHT22;9975;48.046;7.804;2024-02-15T22:08:36;9.70;99.90
19654;DHT22;9975;48.046;7.804;2024-02-15T22:13:28;9.50;99.90
19654;DHT22;9975;48.046;7.804;2024-02-15T22:15:55;9.50;99.90
19654;DHT22;9975;48.046;7.804;2024-02-15T22:18:22;9.40;99.90
19654;DHT22;9975;48.046;7.804;2024-02-15T22:20:50;9.50;99.90
19654;DHT22;9975;48.046;7.804;2024-02-15T22:23:17;9.50;99.90
19654;DHT22;9975;48.046;7.804;2024-02-15T22:25:45;9.80;99.90
19654;DHT22;9975;48.046;7.804;2024-02-15T22:28:10;9.70;99.90
19654;DHT22;9975;48.046;7.804;2024-02-15T22:30:36;9.70;99.90
19654;DHT22;9975;48.046;7.804;2024-02-15T22:33:02;9.50;99.90
19654;DHT22;9975;48.046;7.804;2024-02-15T22:35:28;9.60;99.90
19654;DHT22;9975;48.046;7.804;2024-02-15T22:37:54;9.60;99.90
19654;DHT22;9975;48.046;7.804;2024-02-15T22:40:19;9.50;99.90
19654;DHT22;9975;48.046;7.804;2024-02-15T22:42:45;9.60;99.90
19654;DHT22;9975;48.046;7.804;2024-02-15T22:45:10;9.60;99.90
19654;DHT22;9975;48.046;7.804;2024-02-15T22:47:38;9.70;99.90
19654;DHT22;9975;48.046;7.804;2024-02-15T22:50:05;9.60;99.90
19654;DHT22;9975;48.046;7.804;2024-02-15T22:52:31;9.60;99.90
19654;DHT22;9975;48.046;7.804;2024-02-15T22:54:57;9.50;99.90
19654;DHT22;9975;48.046;7.804;2024-02-15T22:57:25;9.50;99.90
19654;DHT22;9975;48.046;7.804;2024-02-15T22:59:52;9.50;99.90
19654;DHT22;9975;48.046;7.804;2024-02-15T23:02:17;9.40;99.90
19654;DHT22;9975;48.046;7.804;2024-02-15T23:04:43;9.40;99.90
19654;DHT22;9975;48.046;7.804;2024-02-15T23:09:35;9.40;99.90
19654;DHT22;9975;48.046;7.804;2024-02-15T23:12:01;9.40;99.90
19654;DHT22;9975;48.046;7.804;2024-02-15T23:14:28;9.50;99.90
19654;DHT22;9975;48.046;7.804;2024-02-15T23:16:55;9.50;99.90
19654;DHT22;9975;48.046;7.804;2024-02-15T23:19:21;9.50;99.90
19654;DHT22;9975;48.046;7.804;2024-02-15T23:21:47;9.50;99.90
19654;DHT22;9975;48.046;7.804;2024-02-15T23:24:13;9.50;99.90
19654;DHT22;9975;48.046;7.804;2024-02-15T23:26:38;9.50;99.90
19654;DHT22;9975;48.046;7.804;2024-02-15T23:29:05;9.40;99.90
